Terminal Aerodrome Forecast
Issued by NWS Jackson, MS

Home | Current Version | Previous Version | Text Only | Print | Product List | Glossary On
Versions: 1 2 3 4 5 6 7 8 9 10 11 12 13 14 15 16 17 18 19
000
FTUS44 KMEG 020500
TAFTUP
TAF
KTUP 020529Z 0206/0306 20004KT P6SM FEW010 SCT250
      TEMPO 0211/0214 5SM BR BKN010
     FM021600 24007KT P6SM VCSH SCT040 BKN250
      TEMPO 0217/0220 VRB10KT 6SM SHRA BKN040
     FM030000 VRB02KT P6SM VCSH SCT040 BKN150=

USA.gov is the U.S. government's official web portal to all federal, state and local government web resources and services.